createdAt,value
2023-03-22T00:02:18.442Z,99.90
2023-03-22T00:04:47.018Z,99.90
2023-03-22T00:07:15.438Z,99.90
2023-03-22T00:09:43.918Z,99.90
2023-03-22T00:12:12.217Z,99.90
2023-03-22T00:14:42.889Z,99.90
2023-03-22T00:17:11.143Z,99.90
2023-03-22T00:19:42.328Z,99.90
2023-03-22T00:22:11.514Z,99.90
2023-03-22T00:24:39.633Z,99.90
2023-03-22T00:27:08.173Z,99.90
2023-03-22T00:29:36.306Z,99.90
2023-03-22T00:32:06.159Z,99.90
2023-03-22T00:34:35.214Z,99.90
2023-03-22T00:37:04.203Z,99.90
2023-03-22T00:39:32.303Z,99.90
2023-03-22T00:42:00.864Z,99.90
2023-03-22T00:44:28.939Z,99.90
2023-03-22T00:46:57.102Z,99.90
2023-03-22T00:49:27.426Z,99.90
2023-03-22T00:51:56.335Z,99.90
2023-03-22T00:54:24.449Z,99.90
2023-03-22T00:56:52.985Z,99.90
2023-03-22T00:59:21.422Z,99.90
2023-03-22T01:01:49.739Z,99.90
2023-03-22T01:04:18.167Z,99.90
2023-03-22T01:06:48.380Z,99.90
2023-03-22T01:09:16.703Z,99.90
2023-03-22T01:11:46.160Z,99.90
2023-03-22T01:14:15.049Z,99.90
2023-03-22T01:16:43.468Z,99.90
2023-03-22T01:19:11.976Z,99.90
2023-03-22T01:21:40.154Z,99.90
2023-03-22T01:24:10.004Z,99.90
2023-03-22T01:26:39.071Z,99.90
2023-03-22T01:29:07.138Z,99.90
2023-03-22T01:31:35.398Z,99.90
2023-03-22T01:34:03.917Z,99.90
2023-03-22T01:36:32.544Z,99.90
2023-03-22T01:39:00.787Z,99.90
2023-03-22T01:41:35.008Z,99.90
2023-03-22T01:44:10.413Z,99.90
2023-03-22T01:46:38.923Z,99.90
2023-03-22T01:49:09.688Z,99.90
2023-03-22T01:51:38.310Z,99.90
2023-03-22T01:54:19.913Z,99.90
2023-03-22T01:56:50.311Z,99.90
2023-03-22T01:59:26.696Z,99.90
2023-03-22T02:02:18.878Z,99.90
2023-03-22T02:04:57.932Z,99.90
2023-03-22T02:07:29.146Z,99.90
2023-03-22T02:09:58.642Z,99.90
2023-03-22T02:12:46.814Z,99.90
2023-03-22T02:15:36.678Z,99.90
2023-03-22T02:18:36.297Z,99.90
2023-03-22T02:21:27.264Z,99.90
2023-03-22T02:24:26.303Z,99.90
2023-03-22T02:27:24.757Z,99.90
2023-03-22T02:30:09.092Z,99.90
2023-03-22T02:33:07.970Z,99.90
2023-03-22T02:35:52.250Z,99.90
2023-03-22T02:38:49.974Z,99.90
2023-03-22T02:41:29.011Z,99.90
2023-03-22T02:44:08.677Z,99.90
2023-03-22T02:46:42.963Z,99.90
2023-03-22T02:49:18.609Z,99.90
2023-03-22T02:51:51.429Z,99.90
2023-03-22T02:54:28.904Z,99.90
2023-03-22T02:57:04.107Z,99.90
2023-03-22T02:59:38.558Z,99.90
2023-03-22T03:02:10.635Z,99.90
2023-03-22T03:04:43.657Z,99.90
2023-03-22T03:07:15.465Z,99.90
2023-03-22T03:09:45.886Z,99.90
2023-03-22T03:12:15.889Z,99.90
2023-03-22T03:14:44.151Z,99.90
2023-03-22T03:17:25.677Z,99.90
2023-03-22T03:20:08.073Z,99.90
2023-03-22T03:22:50.684Z,99.90
2023-03-22T03:25:28.158Z,99.90
2023-03-22T03:28:04.808Z,99.90
2023-03-22T03:30:38.901Z,99.90
2023-03-22T03:33:10.989Z,99.90
2023-03-22T03:35:45.381Z,99.90
2023-03-22T03:38:18.614Z,99.90
2023-03-22T03:40:52.626Z,99.90
2023-03-22T03:43:25.629Z,99.90
2023-03-22T03:45:54.782Z,99.90
2023-03-22T03:48:25.613Z,99.90
2023-03-22T03:50:55.309Z,99.90
2023-03-22T03:53:23.599Z,99.90
2023-03-22T03:55:53.368Z,99.90
2023-03-22T03:58:21.735Z,99.90
2023-03-22T04:00:50.645Z,99.90
2023-03-22T04:03:45.266Z,99.90
2023-03-22T04:06:13.742Z,99.90
2023-03-22T04:08:53.642Z,99.90
2023-03-22T04:11:27.086Z,99.90
2023-03-22T04:14:00.020Z,99.90
2023-03-22T04:16:28.250Z,99.90
2023-03-22T04:18:56.434Z,99.90
2023-03-22T04:21:24.847Z,99.90
2023-03-22T04:24:03.555Z,99.90
2023-03-22T04:26:38.380Z,99.90
2023-03-22T04:29:36.221Z,99.90
2023-03-22T04:32:27.467Z,99.90
2023-03-22T04:34:57.226Z,99.90
2023-03-22T04:37:27.046Z,99.90
2023-03-22T04:40:16.551Z,99.90
2023-03-22T04:43:06.346Z,99.90
2023-03-22T04:45:47.384Z,99.90
2023-03-22T04:48:22.135Z,99.90
2023-03-22T04:50:53.638Z,99.90
2023-03-22T04:53:27.550Z,99.90
2023-03-22T04:56:02.828Z,99.90
2023-03-22T04:58:33.778Z,99.90
2023-03-22T05:01:02.543Z,99.90
2023-03-22T05:03:30.925Z,99.90
2023-03-22T05:06:01.100Z,99.90
2023-03-22T05:08:39.099Z,99.90
2023-03-22T05:11:09.999Z,99.90
2023-03-22T05:13:39.939Z,99.90
2023-03-22T05:16:09.234Z,99.90
2023-03-22T05:18:46.599Z,99.90
2023-03-22T05:21:16.395Z,99.90
2023-03-22T05:23:51.481Z,99.90
2023-03-22T05:26:24.261Z,99.90
2023-03-22T05:28:54.736Z,99.90
2023-03-22T05:31:34.512Z,99.90
2023-03-22T05:34:04.360Z,99.90
2023-03-22T05:36:36.463Z,99.90
2023-03-22T05:39:22.889Z,99.90
2023-03-22T05:41:51.790Z,99.90
2023-03-22T05:44:21.301Z,99.90
2023-03-22T05:46:58.575Z,99.90
2023-03-22T05:49:39.567Z,99.90
2023-03-22T05:52:09.257Z,99.90
2023-03-22T05:54:49.685Z,99.90
2023-03-22T05:57:18.744Z,99.90
2023-03-22T05:59:48.326Z,99.90
2023-03-22T06:02:25.037Z,99.90
2023-03-22T06:04:53.269Z,99.90
2023-03-22T06:07:22.254Z,99.90
2023-03-22T06:09:56.990Z,99.90
2023-03-22T06:12:30.084Z,99.90
2023-03-22T06:15:11.625Z,99.90
2023-03-22T06:17:54.492Z,99.90
2023-03-22T06:20:27.224Z,99.90
2023-03-22T06:23:01.789Z,99.90
2023-03-22T06:25:30.048Z,99.90
2023-03-22T06:27:58.172Z,99.90
2023-03-22T06:30:28.276Z,99.90
2023-03-22T06:33:19.774Z,99.90
2023-03-22T06:35:53.101Z,99.90
2023-03-22T06:38:29.947Z,99.90
2023-03-22T06:40:58.706Z,99.90
2023-03-22T06:43:27.472Z,99.90
2023-03-22T06:46:04.696Z,99.90
2023-03-22T06:48:38.705Z,99.90
2023-03-22T06:51:11.108Z,99.90
2023-03-22T06:53:39.452Z,99.90
2023-03-22T06:56:08.521Z,99.90
2023-03-22T06:58:47.778Z,99.90
2023-03-22T07:01:17.322Z,99.90
2023-03-22T07:03:45.512Z,99.90
2023-03-22T07:06:17.080Z,99.90
2023-03-22T07:08:50.895Z,99.90
2023-03-22T07:11:26.117Z,99.90
2023-03-22T07:13:59.918Z,99.90
2023-03-22T07:16:38.234Z,99.90
2023-03-22T07:19:07.967Z,99.90
2023-03-22T07:21:39.301Z,99.90
2023-03-22T07:24:12.066Z,99.90
2023-03-22T07:26:41.007Z,99.90
2023-03-22T07:29:10.767Z,99.90
2023-03-22T07:31:41.056Z,99.90
2023-03-22T07:34:14.409Z,99.90
2023-03-22T07:37:03.081Z,99.90
2023-03-22T07:39:32.829Z,99.90
2023-03-22T07:42:00.995Z,99.90
2023-03-22T07:44:52.655Z,99.90
2023-03-22T07:47:37.831Z,99.90
2023-03-22T07:50:20.772Z,99.90
2023-03-22T07:52:54.373Z,99.90
2023-03-22T07:55:22.783Z,99.90
2023-03-22T07:57:51.213Z,99.90
2023-03-22T08:00:20.540Z,99.90
2023-03-22T08:03:01.196Z,99.90
2023-03-22T08:05:51.775Z,99.90
2023-03-22T08:08:21.146Z,99.90
2023-03-22T08:10:52.319Z,99.90
2023-03-22T08:13:20.725Z,99.90
2023-03-22T08:15:49.039Z,99.90
2023-03-22T08:18:21.192Z,99.90
2023-03-22T08:20:54.746Z,99.90
2023-03-22T08:23:38.444Z,99.90
2023-03-22T08:26:27.947Z,99.90
2023-03-22T08:28:59.679Z,99.90
2023-03-22T08:31:31.760Z,99.90
2023-03-22T08:34:01.806Z,99.90
2023-03-22T08:36:30.267Z,99.90
2023-03-22T08:39:02.641Z,99.90
2023-03-22T08:41:46.049Z,99.90
2023-03-22T08:44:14.770Z,99.90
2023-03-22T08:46:43.053Z,99.90
2023-03-22T08:49:13.030Z,99.60
2023-03-22T08:51:50.862Z,98.50
2023-03-22T08:54:37.763Z,97.40
2023-03-22T08:57:09.423Z,96.30
2023-03-22T09:00:15.212Z,96.00
2023-03-22T09:02:54.545Z,94.40
2023-03-22T09:05:24.277Z,93.00
2023-03-22T09:07:54.010Z,93.40
2023-03-22T09:10:32.481Z,93.50
2023-03-22T09:13:00.798Z,92.00
2023-03-22T09:15:29.380Z,91.40
2023-03-22T09:18:17.738Z,90.30
2023-03-22T09:20:48.310Z,90.30
2023-03-22T09:23:20.517Z,90.50
2023-03-22T09:25:49.337Z,91.10
2023-03-22T09:28:22.047Z,91.90
2023-03-22T09:30:51.778Z,91.30
2023-03-22T09:33:19.956Z,92.10
2023-03-22T09:35:55.512Z,91.60
2023-03-22T09:38:23.873Z,91.10
2023-03-22T09:41:00.813Z,91.80
2023-03-22T09:43:35.339Z,90.60
2023-03-22T09:46:06.183Z,90.80
2023-03-22T09:48:36.838Z,90.60
2023-03-22T09:51:12.877Z,91.10
2023-03-22T09:53:41.071Z,90.90
2023-03-22T09:56:15.625Z,91.20
2023-03-22T09:58:51.831Z,91.80
2023-03-22T10:01:30.252Z,92.20
2023-03-22T10:04:12.077Z,92.20
2023-03-22T10:06:46.233Z,93.00
2023-03-22T10:09:20.349Z,92.50
2023-03-22T10:11:50.772Z,92.70
2023-03-22T10:14:29.037Z,92.50
2023-03-22T10:17:00.088Z,92.90
2023-03-22T10:19:32.706Z,92.60
2023-03-22T10:22:04.676Z,92.70
2023-03-22T10:24:36.646Z,92.50
2023-03-22T10:27:09.316Z,93.10
2023-03-22T10:29:41.810Z,93.00
2023-03-22T10:32:17.282Z,92.60
2023-03-22T10:34:46.642Z,92.30
2023-03-22T10:37:20.688Z,92.10
2023-03-22T10:39:51.719Z,92.20
2023-03-22T10:42:24.684Z,92.70
2023-03-22T10:44:56.511Z,92.40
2023-03-22T10:47:32.766Z,91.80
2023-03-22T10:50:04.233Z,92.20
2023-03-22T10:52:42.777Z,91.50
2023-03-22T10:55:14.496Z,91.00
2023-03-22T10:57:47.631Z,90.80
2023-03-22T11:00:17.927Z,91.10
2023-03-22T11:02:52.325Z,91.00
2023-03-22T11:05:22.926Z,89.60
2023-03-22T11:07:53.367Z,87.70
2023-03-22T11:10:24.554Z,88.70
2023-03-22T11:12:55.384Z,87.90
2023-03-22T11:15:31.622Z,88.30
2023-03-22T11:18:02.730Z,88.00
2023-03-22T11:20:31.390Z,86.70
2023-03-22T11:23:05.083Z,85.90
2023-03-22T11:25:35.768Z,86.00
2023-03-22T11:28:19.268Z,84.90
2023-03-22T11:31:02.755Z,83.70
2023-03-22T11:33:31.379Z,83.90
2023-03-22T11:36:01.689Z,83.20
2023-03-22T11:38:37.012Z,82.40
2023-03-22T11:41:08.422Z,82.00
2023-03-22T11:43:39.091Z,82.80
2023-03-22T11:46:09.995Z,82.00
2023-03-22T11:48:41.760Z,83.40
2023-03-22T11:51:13.272Z,83.30
2023-03-22T11:53:45.700Z,82.80
2023-03-22T11:56:17.974Z,83.90
2023-03-22T11:58:59.747Z,83.60
2023-03-22T12:01:35.597Z,85.30
2023-03-22T12:04:08.656Z,84.00
2023-03-22T12:06:41.188Z,85.90
2023-03-22T12:09:22.790Z,85.20
2023-03-22T12:11:54.152Z,89.00
2023-03-22T12:14:27.396Z,92.70
2023-03-22T12:16:59.442Z,92.70
2023-03-22T12:19:50.938Z,95.10
2023-03-22T12:22:23.715Z,95.70
2023-03-22T12:24:53.613Z,97.60
2023-03-22T12:27:25.567Z,99.90
2023-03-22T12:29:59.915Z,99.90
2023-03-22T12:32:31.796Z,99.90
2023-03-22T12:35:18.080Z,99.90
2023-03-22T12:37:50.881Z,99.90
2023-03-22T12:40:27.208Z,99.90
2023-03-22T12:43:12.966Z,99.90
2023-03-22T12:45:47.171Z,99.90
2023-03-22T12:48:20.312Z,99.90
2023-03-22T12:50:53.057Z,99.90
2023-03-22T12:53:22.939Z,99.90
2023-03-22T12:55:53.133Z,99.90
2023-03-22T12:58:23.632Z,99.90
2023-03-22T13:00:58.194Z,99.90
2023-03-22T13:03:29.617Z,99.90
2023-03-22T13:06:04.927Z,99.90
2023-03-22T13:09:17.845Z,99.90
2023-03-22T13:11:50.145Z,99.90
2023-03-22T13:14:57.997Z,99.90
2023-03-22T13:17:42.031Z,99.90
2023-03-22T13:20:27.859Z,99.90
2023-03-22T13:23:10.742Z,99.90
2023-03-22T13:25:40.323Z,99.90
2023-03-22T13:28:27.389Z,99.90
2023-03-22T13:30:57.505Z,99.90
2023-03-22T13:33:28.857Z,99.90
2023-03-22T13:35:59.117Z,99.90
2023-03-22T13:38:30.467Z,99.90
2023-03-22T13:41:02.660Z,99.90
2023-03-22T13:43:35.413Z,99.90
2023-03-22T13:46:28.022Z,99.90
2023-03-22T13:49:18.584Z,99.90
2023-03-22T13:51:46.951Z,99.90
2023-03-22T13:54:24.084Z,99.90
2023-03-22T13:56:56.890Z,99.90
2023-03-22T13:59:31.446Z,99.90
2023-03-22T14:02:04.825Z,99.90
2023-03-22T14:04:40.615Z,99.90
2023-03-22T14:07:24.043Z,99.90
2023-03-22T14:09:56.719Z,99.90
2023-03-22T14:12:29.659Z,99.90
2023-03-22T14:15:06.302Z,99.90
2023-03-22T14:17:40.266Z,99.90
2023-03-22T14:20:13.271Z,99.90
